createdAt,value
2023-04-22T00:01:27.448Z,9.78
2023-04-22T00:04:15.352Z,9.75
2023-04-22T00:07:03.111Z,9.74
2023-04-22T00:09:52.105Z,9.73
2023-04-22T00:12:40.048Z,9.68
2023-04-22T00:15:28.145Z,9.62
2023-04-22T00:18:16.339Z,9.59
2023-04-22T00:21:03.812Z,9.57
2023-04-22T00:23:51.247Z,9.55
2023-04-22T00:26:40.151Z,9.52
2023-04-22T00:29:27.623Z,9.49
2023-04-22T00:32:14.986Z,9.48
2023-04-22T00:35:02.433Z,9.44
2023-04-22T00:37:49.971Z,9.42
2023-04-22T00:40:37.594Z,9.38
2023-04-22T00:43:26.406Z,9.36
2023-04-22T00:46:15.483Z,9.35
2023-04-22T00:49:03.972Z,9.30
2023-04-22T00:51:51.359Z,9.26
2023-04-22T00:54:38.995Z,9.24
2023-04-22T00:57:26.393Z,9.20
2023-04-22T01:00:16.272Z,9.17
2023-04-22T01:03:07.365Z,9.13
2023-04-22T01:05:55.201Z,9.09
2023-04-22T01:08:43.596Z,9.06
2023-04-22T01:11:31.629Z,9.04
2023-04-22T01:14:19.223Z,9.01
2023-04-22T01:17:10.194Z,8.98
2023-04-22T01:19:57.966Z,8.94
2023-04-22T01:22:47.796Z,8.91
2023-04-22T01:25:37.569Z,8.89
2023-04-22T01:28:26.110Z,8.84
2023-04-22T01:31:14.123Z,8.83
2023-04-22T01:34:02.369Z,8.80
2023-04-22T01:36:50.751Z,8.77
2023-04-22T01:39:39.607Z,8.76
2023-04-22T01:42:29.286Z,8.74
2023-04-22T01:45:17.485Z,8.71
2023-04-22T01:48:06.877Z,8.68
2023-04-22T01:50:54.948Z,8.68
2023-04-22T01:53:42.855Z,8.66
2023-04-22T01:56:30.748Z,8.65
2023-04-22T01:59:21.510Z,8.65
2023-04-22T02:02:09.361Z,8.60
2023-04-22T02:04:57.032Z,8.55
2023-04-22T02:07:44.813Z,8.52
2023-04-22T02:10:32.926Z,8.49
2023-04-22T02:13:20.807Z,8.48
2023-04-22T02:16:10.828Z,8.46
2023-04-22T02:18:58.540Z,8.42
2023-04-22T02:21:46.054Z,8.41
2023-04-22T02:24:33.410Z,8.39
2023-04-22T02:27:21.030Z,8.38
2023-04-22T02:30:09.856Z,8.36
2023-04-22T02:32:58.721Z,8.34
2023-04-22T02:35:46.653Z,8.33
2023-04-22T02:38:34.200Z,8.30
2023-04-22T02:41:21.806Z,8.28
2023-04-22T02:44:09.632Z,8.29
2023-04-22T02:46:57.099Z,8.26
2023-04-22T02:49:45.911Z,8.24
2023-04-22T02:52:35.430Z,8.22
2023-04-22T02:55:25.796Z,8.19
2023-04-22T02:58:13.208Z,8.16
2023-04-22T03:01:00.936Z,8.14
2023-04-22T03:03:48.681Z,8.11
2023-04-22T03:06:37.648Z,8.08
2023-04-22T03:09:25.700Z,8.06
2023-04-22T03:12:13.211Z,8.05
2023-04-22T03:15:00.790Z,8.02
2023-04-22T03:17:48.152Z,8.00
2023-04-22T03:20:36.086Z,7.97
2023-04-22T03:23:24.814Z,7.95
2023-04-22T03:26:13.589Z,7.93
2023-04-22T03:29:01.192Z,7.90
2023-04-22T03:31:48.880Z,7.87
2023-04-22T03:34:37.308Z,7.85
2023-04-22T03:37:24.999Z,7.81
2023-04-22T03:40:14.418Z,7.79
2023-04-22T03:43:03.646Z,7.76
2023-04-22T03:45:53.083Z,7.73
2023-04-22T03:48:42.529Z,7.68
2023-04-22T03:51:30.213Z,7.66
2023-04-22T03:54:17.952Z,7.62
2023-04-22T03:57:07.157Z,7.59
2023-04-22T03:59:54.749Z,7.56
2023-04-22T04:02:42.654Z,7.51
2023-04-22T04:05:30.315Z,7.50
2023-04-22T04:08:18.106Z,7.46
2023-04-22T04:11:06.181Z,7.42
2023-04-22T04:13:55.018Z,7.41
2023-04-22T04:16:42.906Z,7.36
2023-04-22T04:19:30.538Z,7.33
2023-04-22T04:22:18.331Z,7.32
2023-04-22T04:25:07.648Z,7.30
2023-04-22T04:27:55.441Z,7.26
2023-04-22T04:30:44.307Z,7.24
2023-04-22T04:33:32.769Z,7.22
2023-04-22T04:36:20.400Z,7.20
2023-04-22T04:39:09.484Z,7.18
2023-04-22T04:41:58.923Z,7.18
2023-04-22T04:44:47.431Z,7.15
2023-04-22T04:47:36.566Z,7.13
2023-04-22T04:50:24.455Z,7.13
2023-04-22T04:53:13.693Z,7.14
2023-04-22T04:56:01.479Z,7.12
2023-04-22T04:58:48.920Z,7.13
2023-04-22T05:01:36.784Z,7.13
2023-04-22T05:04:26.305Z,7.14
2023-04-22T05:07:14.246Z,7.16
2023-04-22T05:10:02.044Z,7.20
2023-04-22T05:12:49.892Z,7.26
2023-04-22T05:15:37.595Z,7.28
2023-04-22T05:18:25.395Z,7.28
2023-04-22T05:21:14.170Z,7.37
2023-04-22T05:24:02.289Z,7.41
2023-04-22T05:26:50.185Z,7.43
2023-04-22T05:29:38.252Z,7.50
2023-04-22T05:32:26.136Z,7.57
2023-04-22T05:35:14.059Z,7.60
2023-04-22T05:38:04.046Z,7.70
2023-04-22T05:40:51.750Z,7.75
2023-04-22T05:43:39.067Z,7.98
2023-04-22T05:46:26.907Z,8.02
2023-04-22T05:49:14.702Z,7.98
2023-04-22T05:52:05.349Z,8.12
2023-04-22T05:54:54.220Z,8.34
2023-04-22T05:57:41.683Z,8.50
2023-04-22T06:00:29.323Z,8.60
2023-04-22T06:03:17.352Z,8.85
2023-04-22T06:06:06.259Z,9.06
2023-04-22T06:08:54.117Z,9.20
2023-04-22T06:11:43.148Z,9.40
2023-04-22T06:14:30.944Z,9.66
2023-04-22T06:17:18.418Z,9.89
2023-04-22T06:20:07.492Z,10.09
2023-04-22T06:22:55.122Z,10.18
2023-04-22T06:25:42.651Z,10.41
2023-04-22T06:28:31.777Z,10.63
2023-04-22T06:31:21.047Z,10.81
2023-04-22T06:34:08.574Z,11.22
2023-04-22T06:36:56.030Z,11.28
2023-04-22T06:39:43.466Z,11.38
2023-04-22T06:42:31.046Z,11.65
2023-04-22T06:45:21.100Z,12.24
2023-04-22T06:48:08.819Z,12.34
2023-04-22T06:50:57.346Z,12.67
2023-04-22T06:53:52.631Z,12.73
2023-04-22T06:56:40.496Z,12.79
2023-04-22T06:59:28.037Z,13.14
2023-04-22T07:02:17.224Z,13.21
2023-04-22T07:05:04.954Z,13.61
2023-04-22T07:07:52.662Z,13.81
2023-04-22T07:10:40.757Z,14.00
2023-04-22T07:13:29.049Z,14.04
2023-04-22T07:16:16.646Z,14.12
2023-04-22T07:19:05.979Z,14.13
2023-04-22T07:21:53.877Z,14.25
2023-04-22T07:24:41.645Z,14.39
2023-04-22T07:27:29.596Z,14.51
2023-04-22T07:30:17.622Z,14.61
2023-04-22T07:33:05.593Z,14.69
2023-04-22T07:35:54.789Z,14.74
2023-04-22T07:38:42.264Z,14.90
2023-04-22T07:41:29.767Z,15.06
2023-04-22T07:44:21.542Z,15.20
2023-04-22T07:47:09.357Z,15.39
2023-04-22T07:49:56.865Z,15.62
2023-04-22T07:52:45.815Z,15.81
2023-04-22T07:55:33.444Z,15.95
2023-04-22T07:58:21.291Z,16.10
2023-04-22T08:01:09.030Z,16.31
2023-04-22T08:03:57.521Z,16.58
2023-04-22T08:06:45.690Z,16.87
2023-04-22T08:09:34.594Z,17.08
2023-04-22T08:12:22.223Z,17.12
2023-04-22T08:15:10.896Z,17.13
2023-04-22T08:17:58.913Z,17.40
2023-04-22T08:20:48.692Z,17.82
2023-04-22T08:23:36.622Z,18.01
2023-04-22T08:26:25.869Z,18.15
2023-04-22T08:29:14.794Z,18.22
2023-04-22T08:32:02.522Z,18.20
2023-04-22T08:34:51.822Z,18.55
2023-04-22T08:37:41.675Z,18.95
2023-04-22T08:40:29.193Z,19.35
2023-04-22T08:43:22.558Z,18.94
2023-04-22T08:46:10.406Z,19.40
2023-04-22T08:49:03.674Z,19.55
2023-04-22T08:51:53.002Z,19.95
2023-04-22T08:54:41.041Z,20.12
2023-04-22T08:57:29.839Z,20.07
2023-04-22T09:00:20.551Z,20.42
2023-04-22T09:03:09.513Z,20.29
2023-04-22T09:05:58.996Z,20.56
2023-04-22T09:08:47.335Z,21.09
2023-04-22T09:11:35.854Z,21.30
2023-04-22T09:14:24.094Z,21.54
2023-04-22T09:17:16.679Z,21.90
2023-04-22T09:20:06.872Z,21.58
2023-04-22T09:22:55.500Z,21.83
2023-04-22T09:25:46.578Z,22.58
2023-04-22T09:28:38.487Z,21.97
2023-04-22T09:31:28.271Z,22.24
2023-04-22T09:34:17.543Z,22.15
2023-04-22T09:37:06.780Z,22.40
2023-04-22T09:39:55.327Z,22.34
2023-04-22T09:42:51.825Z,22.83
2023-04-22T09:45:41.158Z,23.67
2023-04-22T09:48:28.802Z,22.93
2023-04-22T09:51:19.687Z,22.09
2023-04-22T09:54:10.502Z,22.04
2023-04-22T09:56:58.631Z,22.99
2023-04-22T09:59:46.480Z,23.75
2023-04-22T10:02:34.106Z,22.24
2023-04-22T10:05:21.744Z,21.57
2023-04-22T10:08:11.815Z,22.22
2023-04-22T10:10:59.270Z,22.41
2023-04-22T10:13:46.796Z,22.60
2023-04-22T10:16:36.586Z,23.15
2023-04-22T10:19:26.737Z,23.53
2023-04-22T10:22:15.352Z,22.46
2023-04-22T10:25:09.795Z,23.43
2023-04-22T10:28:05.003Z,23.87
2023-04-22T10:30:52.709Z,23.70
2023-04-22T10:33:42.022Z,23.48
2023-04-22T10:36:30.365Z,23.88
2023-04-22T10:39:19.082Z,24.04
2023-04-22T10:42:12.097Z,25.12
2023-04-22T10:45:05.256Z,25.19
2023-04-22T10:47:52.781Z,25.33
2023-04-22T10:55:00.700Z,25.27
2023-04-22T10:57:51.881Z,24.66
2023-04-22T11:00:53.257Z,23.49
2023-04-22T11:03:41.984Z,23.67
2023-04-22T11:06:31.161Z,24.94
2023-04-22T11:09:18.853Z,25.48
2023-04-22T11:12:40.066Z,25.97
2023-04-22T11:15:32.265Z,26.70
2023-04-22T11:18:23.928Z,26.02
2023-04-22T11:21:12.065Z,26.47
2023-04-22T11:24:02.942Z,25.96
2023-04-22T11:26:50.527Z,26.57
2023-04-22T11:29:38.448Z,27.06
2023-04-22T11:32:29.226Z,28.01
2023-04-22T11:35:20.476Z,27.95
2023-04-22T11:38:08.834Z,26.62
2023-04-22T11:40:58.489Z,27.86
2023-04-22T11:43:49.219Z,27.54
2023-04-22T11:46:39.455Z,28.32
2023-04-22T11:49:28.625Z,28.17
2023-04-22T11:52:16.359Z,28.17
2023-04-22T11:55:03.847Z,27.30
2023-04-22T11:57:57.310Z,27.22
2023-04-22T12:00:49.580Z,27.18
2023-04-22T12:03:37.705Z,27.47
2023-04-22T12:06:32.268Z,27.15
2023-04-22T12:09:20.191Z,27.61
2023-04-22T12:12:08.060Z,27.34
2023-04-22T12:14:57.941Z,28.53
2023-04-22T12:17:47.227Z,28.97
2023-04-22T12:20:36.150Z,29.23
2023-04-22T12:23:25.131Z,30.56
2023-04-22T12:26:13.961Z,29.96
2023-04-22T12:29:02.408Z,29.79
2023-04-22T12:31:50.092Z,29.53
2023-04-22T12:34:37.842Z,27.76
2023-04-22T12:37:25.360Z,27.88
2023-04-22T12:40:14.558Z,27.33
2023-04-22T12:43:05.995Z,27.06
2023-04-22T12:45:54.054Z,26.45
2023-04-22T12:48:42.817Z,27.89
2023-04-22T12:51:30.943Z,28.32
2023-04-22T12:54:18.408Z,27.57
2023-04-22T12:57:07.547Z,27.74
2023-04-22T12:59:55.691Z,29.59
2023-04-22T13:02:44.138Z,30.47
2023-04-22T13:05:31.850Z,30.11
2023-04-22T13:08:19.462Z,29.15
2023-04-22T13:11:07.345Z,27.68
2023-04-22T13:13:56.157Z,27.02
2023-04-22T13:16:44.028Z,27.46
2023-04-22T13:19:32.310Z,28.83
2023-04-22T13:22:20.165Z,27.95
2023-04-22T13:25:09.717Z,28.38
2023-04-22T13:27:57.494Z,28.40
2023-04-22T13:30:46.519Z,27.57
2023-04-22T13:33:34.019Z,28.15
2023-04-22T13:36:21.749Z,29.06
2023-04-22T13:39:09.585Z,26.55
2023-04-22T13:41:57.945Z,28.12
2023-04-22T13:44:45.693Z,28.26
2023-04-22T13:47:34.712Z,27.42
2023-04-22T13:50:22.647Z,27.32
2023-04-22T13:53:11.779Z,28.38
2023-04-22T13:56:00.682Z,27.73
2023-04-22T13:58:48.864Z,28.28
2023-04-22T14:01:37.894Z,27.97
2023-04-22T14:04:26.942Z,26.55
2023-04-22T14:07:14.888Z,28.22
2023-04-22T14:10:11.506Z,27.75
2023-04-22T14:12:59.119Z,28.49
2023-04-22T14:15:46.618Z,29.28
2023-04-22T14:18:36.181Z,28.96
2023-04-22T14:21:27.373Z,30.05
2023-04-22T14:24:15.691Z,29.16
2023-04-22T14:27:03.331Z,28.57
2023-04-22T14:29:52.372Z,29.01
2023-04-22T14:32:40.190Z,27.64
2023-04-22T14:35:27.854Z,27.02
2023-04-22T14:38:16.918Z,29.74
2023-04-22T14:41:05.974Z,27.80
2023-04-22T14:43:53.810Z,29.03
2023-04-22T14:46:41.468Z,30.19
2023-04-22T14:49:30.179Z,28.59
2023-04-22T14:52:20.662Z,29.05
2023-04-22T14:55:21.917Z,28.65
2023-04-22T14:58:10.617Z,28.70
2023-04-22T15:00:59.705Z,29.85
2023-04-22T15:03:48.831Z,28.65
2023-04-22T15:06:36.831Z,30.04
2023-04-22T15:09:25.295Z,29.33
2023-04-22T15:12:14.328Z,29.52
2023-04-22T15:15:02.009Z,29.80
2023-04-22T15:17:49.549Z,30.44
2023-04-22T15:20:37.337Z,30.54
2023-04-22T15:23:26.589Z,30.61
2023-04-22T15:26:15.344Z,30.77
2023-04-22T15:29:04.501Z,30.67
2023-04-22T15:31:54.452Z,30.51
2023-04-22T15:34:42.107Z,31.58
2023-04-22T15:37:29.652Z,31.51
2023-04-22T15:40:17.482Z,31.91
2023-04-22T15:43:05.307Z,31.81
2023-04-22T15:45:54.340Z,31.18
2023-04-22T15:48:46.988Z,31.40
2023-04-22T15:51:34.809Z,31.36
2023-04-22T15:54:22.260Z,30.94
2023-04-22T15:57:09.752Z,30.89
2023-04-22T16:00:09.490Z,30.76
2023-04-22T16:03:00.963Z,30.56
2023-04-22T16:05:48.813Z,30.37
2023-04-22T16:08:36.212Z,29.64
2023-04-22T16:11:23.621Z,29.69
2023-04-22T16:14:12.188Z,29.32
2023-04-22T16:16:59.972Z,29.07
2023-04-22T16:19:48.762Z,28.82
2023-04-22T16:22:37.059Z,28.50
2023-04-22T16:25:24.716Z,28.41
2023-04-22T16:28:12.448Z,27.77
2023-04-22T16:31:00.225Z,27.70
2023-04-22T16:33:48.019Z,27.70
2023-04-22T16:36:36.969Z,27.61
2023-04-22T16:39:25.450Z,27.48
2023-04-22T16:42:13.464Z,27.08
2023-04-22T16:45:01.225Z,26.75
2023-04-22T16:47:48.923Z,26.63
2023-04-22T16:50:36.444Z,26.52
2023-04-22T16:53:25.308Z,26.15
2023-04-22T16:56:12.782Z,25.92
2023-04-22T16:59:01.420Z,25.06
2023-04-22T17:01:48.849Z,25.43
2023-04-22T17:04:36.584Z,25.43
2023-04-22T17:07:24.177Z,25.33
2023-04-22T17:10:13.080Z,25.19
2023-04-22T17:13:00.745Z,25.01
2023-04-22T17:15:48.203Z,24.79
2023-04-22T17:18:35.686Z,24.66
2023-04-22T17:21:23.476Z,24.51
2023-04-22T17:24:11.224Z,24.18
2023-04-22T17:27:00.131Z,23.96
2023-04-22T17:29:47.814Z,23.87
2023-04-22T17:32:36.221Z,23.75
2023-04-22T17:35:24.166Z,23.60
2023-04-22T17:38:11.920Z,23.49
2023-04-22T17:40:59.892Z,23.37
2023-04-22T17:43:49.007Z,23.26
2023-04-22T17:46:36.875Z,23.12
2023-04-22T17:49:24.689Z,22.93
2023-04-22T17:52:12.629Z,22.79
2023-04-22T17:55:00.290Z,22.66
2023-04-22T17:57:48.288Z,22.52
2023-04-22T18:00:38.261Z,22.38
2023-04-22T18:03:26.164Z,22.25
2023-04-22T18:06:14.276Z,22.15
2023-04-22T18:09:01.969Z,22.03
2023-04-22T18:11:49.472Z,21.90
2023-04-22T18:14:37.102Z,21.77
2023-04-22T18:17:26.079Z,21.67
2023-04-22T18:20:18.714Z,21.55
2023-04-22T18:23:06.440Z,21.41
2023-04-22T18:25:54.416Z,21.29
2023-04-22T18:28:43.470Z,21.24
2023-04-22T18:31:31.292Z,21.09
2023-04-22T18:34:20.104Z,20.96
2023-04-22T18:37:07.860Z,20.84
2023-04-22T18:39:55.261Z,20.74
2023-04-22T18:42:44.699Z,20.65
2023-04-22T18:45:32.634Z,20.54
2023-04-22T18:48:22.349Z,20.43
2023-04-22T18:51:12.286Z,20.34
2023-04-22T18:54:00.136Z,20.24
2023-04-22T18:56:47.597Z,20.13
2023-04-22T18:59:35.208Z,20.05
2023-04-22T19:02:23.203Z,19.96
2023-04-22T19:05:11.289Z,19.87
2023-04-22T19:08:00.760Z,19.79
2023-04-22T19:10:48.313Z,19.69
2023-04-22T19:13:35.856Z,19.58
2023-04-22T19:16:25.660Z,19.51
2023-04-22T19:19:13.778Z,19.46
2023-04-22T19:22:01.600Z,19.42
2023-04-22T19:24:51.232Z,19.40
2023-04-22T19:27:39.249Z,19.34
2023-04-22T19:30:27.794Z,19.30
2023-04-22T19:33:17.621Z,19.21
2023-04-22T19:36:05.908Z,19.16
2023-04-22T19:38:53.317Z,19.15
2023-04-22T19:41:42.067Z,19.04
2023-04-22T19:44:30.390Z,18.99
2023-04-22T19:47:18.621Z,18.99
2023-04-22T19:50:09.288Z,18.95
2023-04-22T19:53:04.296Z,18.81
2023-04-22T19:55:53.678Z,18.59
2023-04-22T19:58:44.126Z,18.38
2023-04-22T20:01:32.614Z,18.08
2023-04-22T20:04:21.677Z,18.05
2023-04-22T20:07:12.133Z,18.19
2023-04-22T20:10:01.892Z,18.17
2023-04-22T20:12:50.756Z,18.13
2023-04-22T20:15:40.586Z,18.07
2023-04-22T20:18:28.586Z,18.03
2023-04-22T20:21:17.024Z,18.00
2023-04-22T20:24:06.252Z,17.90
2023-04-22T20:26:54.584Z,17.83
2023-04-22T20:29:45.072Z,17.77
2023-04-22T20:32:34.702Z,17.71
2023-04-22T20:35:22.946Z,17.63
2023-04-22T20:38:15.013Z,17.65
2023-04-22T20:41:04.843Z,17.61
2023-04-22T20:43:52.684Z,17.48
2023-04-22T20:46:40.380Z,17.32
2023-04-22T20:49:29.625Z,17.19
2023-04-22T20:52:17.591Z,16.87
2023-04-22T20:55:06.616Z,16.92
2023-04-22T20:57:54.158Z,16.83
2023-04-22T21:00:41.853Z,16.83
2023-04-22T21:03:30.981Z,16.86
2023-04-22T21:06:21.854Z,16.87
2023-04-22T21:09:10.527Z,16.99
2023-04-22T21:11:58.805Z,17.02
2023-04-22T21:14:47.877Z,16.90
2023-04-22T21:17:38.750Z,16.81
2023-04-22T21:20:28.898Z,16.75
2023-04-22T21:23:20.018Z,16.69
2023-04-22T21:26:09.344Z,16.57
2023-04-22T21:28:57.540Z,16.50
2023-04-22T21:31:51.540Z,16.51
2023-04-22T21:34:45.947Z,16.60
2023-04-22T21:37:34.313Z,16.51
2023-04-22T21:40:24.058Z,16.43
2023-04-22T21:43:11.699Z,16.42
2023-04-22T21:45:59.198Z,16.37
2023-04-22T21:48:47.167Z,16.35
2023-04-22T21:51:34.971Z,16.33
2023-04-22T21:54:22.924Z,16.31
2023-04-22T21:57:11.972Z,16.31
2023-04-22T21:59:59.578Z,16.35
2023-04-22T22:02:47.769Z,16.36
2023-04-22T22:05:36.044Z,16.36
2023-04-22T22:08:23.982Z,16.32
2023-04-22T22:11:20.251Z,16.28
2023-04-22T22:14:17.113Z,16.28
2023-04-22T22:17:05.312Z,16.26
2023-04-22T22:19:52.653Z,16.21
2023-04-22T22:22:41.278Z,16.18
2023-04-22T22:25:29.150Z,16.15
2023-04-22T22:28:16.989Z,16.14
2023-04-22T22:31:06.884Z,16.11
2023-04-22T22:33:54.478Z,16.06
2023-04-22T22:36:41.932Z,16.01
2023-04-22T22:39:29.607Z,15.98
2023-04-22T22:42:17.068Z,15.88
2023-04-22T22:45:05.584Z,15.80
2023-04-22T22:47:54.534Z,15.74
2023-04-22T22:50:42.521Z,15.69
2023-04-22T22:53:30.143Z,15.63
2023-04-22T22:56:20.813Z,15.54
2023-04-22T22:59:08.608Z,15.48
2023-04-22T23:01:56.391Z,15.42
2023-04-22T23:04:45.658Z,15.34
2023-04-22T23:07:33.474Z,15.28
2023-04-22T23:10:21.196Z,15.19
2023-04-22T23:13:08.868Z,15.15
2023-04-22T23:15:56.157Z,15.12
2023-04-22T23:18:46.352Z,15.07
2023-04-22T23:21:37.438Z,15.02
2023-04-22T23:24:25.858Z,14.96
2023-04-22T23:27:14.608Z,14.95
2023-04-22T23:30:03.058Z,14.90
2023-04-22T23:32:54.803Z,14.86
2023-04-22T23:35:44.038Z,14.82
2023-04-22T23:38:33.156Z,14.78
2023-04-22T23:41:20.920Z,14.73
2023-04-22T23:44:08.714Z,14.80
2023-04-22T23:46:56.585Z,14.77
2023-04-22T23:49:44.088Z,14.75
2023-04-22T23:52:31.546Z,14.77
2023-04-22T23:55:21.634Z,14.70
2023-04-22T23:58:09.433Z,14.63
